createdAt,value
2018-11-14T00:11:49.193Z,53.80
2018-11-14T00:38:46.331Z,54.20
2018-11-14T01:04:55.814Z,54.20
2018-11-14T01:18:03.021Z,54.20
2018-11-14T01:44:13.098Z,54.40
2018-11-14T01:57:20.301Z,54.40
2018-11-14T02:10:27.460Z,54.50
2018-11-14T02:23:34.626Z,54.50
2018-11-14T02:36:41.762Z,54.50
2018-11-14T02:49:48.916Z,54.50
2018-11-14T03:02:56.179Z,54.60
2018-11-14T03:16:03.322Z,54.50
2018-11-14T03:29:10.431Z,54.60
2018-11-14T03:42:17.575Z,54.60
2018-11-14T03:55:24.737Z,54.60
2018-11-14T04:08:31.878Z,54.60
2018-11-14T04:21:39.029Z,54.50
2018-11-14T04:34:46.192Z,54.60
2018-11-14T04:47:53.381Z,54.70
2018-11-14T05:01:00.528Z,54.60
2018-11-14T05:14:07.656Z,54.50
2018-11-14T05:27:14.813Z,54.40
2018-11-14T05:40:22.002Z,55.10
2018-11-14T05:53:29.112Z,54.50
2018-11-14T06:06:36.273Z,54.60
2018-11-14T06:19:43.404Z,54.60
2018-11-14T06:45:53.264Z,54.50
2018-11-14T06:59:00.537Z,54.50
2018-11-14T07:12:07.599Z,50.50
2018-11-14T07:25:14.746Z,49.70
2018-11-14T07:38:21.893Z,51.00
2018-11-14T07:51:29.046Z,50.90
2018-11-14T08:04:36.199Z,51.00
2018-11-14T08:17:43.328Z,51.40
2018-11-14T08:30:50.474Z,51.20
2018-11-14T08:43:57.585Z,51.40
2018-11-14T08:57:04.734Z,51.60
2018-11-14T09:10:11.883Z,52.30
2018-11-14T09:23:19.064Z,52.20
2018-11-14T09:49:29.043Z,53.00
2018-11-14T10:02:36.137Z,53.10
2018-11-14T10:15:43.438Z,53.40
2018-11-14T10:28:50.481Z,53.50
2018-11-14T10:41:57.657Z,53.60
2018-11-14T10:55:04.824Z,53.80
2018-11-14T11:08:12.005Z,54.00
2018-11-14T11:34:22.474Z,54.10
2018-11-14T11:47:29.809Z,54.20
2018-11-14T12:00:37.147Z,54.20
2018-11-14T12:13:44.163Z,54.40
2018-11-14T12:26:51.295Z,54.20
2018-11-14T12:39:58.490Z,54.20
2018-11-14T13:06:08.561Z,54.20
2018-11-14T13:19:15.768Z,54.20
2018-11-14T13:32:23.203Z,54.30
2018-11-14T13:45:30.400Z,54.20
2018-11-14T13:58:37.541Z,53.90
2018-11-14T14:11:45.115Z,54.20
2018-11-14T14:24:52.376Z,54.30
2018-11-14T14:37:59.621Z,54.20
2018-11-14T14:51:06.759Z,54.30
2018-11-14T15:17:16.477Z,54.20
2018-11-14T15:30:23.695Z,54.30
2018-11-14T15:56:33.717Z,54.30
2018-11-14T16:09:40.881Z,54.10
2018-11-14T16:22:48.020Z,53.80
2018-11-14T16:35:55.181Z,54.40
2018-11-14T16:49:02.366Z,54.60
2018-11-14T17:02:09.504Z,54.60
2018-11-14T17:15:16.794Z,54.70
2018-11-14T17:41:26.860Z,54.60
2018-11-14T17:54:34.027Z,54.50
2018-11-14T18:07:41.215Z,54.40
2018-11-14T18:20:48.531Z,54.30
2018-11-14T18:33:55.707Z,54.20
2018-11-14T18:47:02.881Z,54.10
2018-11-14T19:00:10.094Z,54.50
2018-11-14T19:13:17.317Z,54.30
2018-11-14T19:26:24.519Z,54.20
2018-11-14T19:39:31.753Z,54.10
2018-11-14T19:52:38.941Z,50.80
2018-11-14T20:05:46.120Z,52.10
2018-11-14T20:18:53.312Z,52.70
2018-11-14T20:32:00.640Z,53.00
2018-11-14T20:45:07.997Z,53.30
2018-11-14T20:58:15.213Z,53.50
2018-11-14T21:11:22.376Z,53.60
2018-11-14T21:24:29.547Z,53.80
2018-11-14T21:37:36.701Z,53.90
2018-11-14T21:50:43.891Z,54.00
2018-11-14T22:03:51.054Z,54.10
2018-11-14T22:16:58.295Z,54.10
2018-11-14T22:30:05.456Z,54.20
2018-11-14T22:43:12.679Z,54.20
2018-11-14T22:56:19.807Z,54.20
2018-11-14T23:09:26.950Z,54.20
2018-11-14T23:22:34.145Z,54.30
2018-11-14T23:35:41.319Z,54.30
2018-11-14T23:48:48.457Z,54.30
